Time;durP1;ratioP1;P1;durP2;ratioP2;P2;SDS_P1;SDS_P2;PMS_P1;PMS_P2;Temp;Humidity;BMP_temperature;BMP_pressure;BME280_temperature;BME280_humidity;BME280_pressure;Samples;Min_cycle;Max_cycle;Signal;HPM_P1;HPM_P2
2023/07/16 00:02:14;;;;;;;0.10;0.10;;;;;;;17.93;100.00;96151.25;4966387;28;20613;-78
2023/07/16 00:05:00;;;;;;;0.00;0.00;;;;;;;17.85;100.00;96160.09;4956122;28;20426;-78
2023/07/16 00:07:46;;;;;;;0.10;0.10;;;;;;;17.78;100.00;96173.22;4968282;28;20042;-78
2023/07/16 00:10:36;;;;;;;0.10;0.10;;;;;;;17.63;100.00;96181.59;4956479;28;20054;-78
2023/07/16 00:13:22;;;;;;;0.10;0.10;;;;;;;17.55;100.00;96196.63;4959397;28;20326;-79
2023/07/16 00:16:08;;;;;;;0.00;0.00;;;;;;;17.62;100.00;96188.13;4958636;28;20046;-78
2023/07/16 00:18:53;;;;;;;0.10;0.10;;;;;;;17.45;100.00;96189.50;4957781;28;20432;-79
2023/07/16 00:21:39;;;;;;;0.10;0.10;;;;;;;17.60;100.00;96185.72;4965990;28;20105;-78
2023/07/16 00:24:26;;;;;;;0.10;0.10;;;;;;;17.55;100.00;96178.50;4965361;28;20082;-78
2023/07/16 00:27:12;;;;;;;0.10;0.10;;;;;;;17.33;100.00;96154.03;4953554;28;20038;-79
2023/07/16 00:29:58;;;;;;;0.05;0.05;;;;;;;17.37;100.00;96165.84;4966625;28;20042;-79
2023/07/16 00:32:46;;;;;;;0.10;0.10;;;;;;;17.30;100.00;96156.53;4967024;28;20184;-79
2023/07/16 00:35:32;;;;;;;0.10;0.10;;;;;;;17.33;100.00;96167.53;4968618;28;20047;-78
2023/07/16 00:38:18;;;;;;;0.08;0.08;;;;;;;17.35;100.00;96173.44;4952437;28;20034;-78
2023/07/16 00:41:04;;;;;;;0.10;0.10;;;;;;;17.10;100.00;96174.69;4955086;28;20056;-78
2023/07/16 00:43:50;;;;;;;0.00;0.00;;;;;;;16.95;100.00;96174.97;4951423;28;20137;-77
2023/07/16 00:46:38;;;;;;;0.10;0.10;;;;;;;16.87;100.00;96173.72;4969015;28;20567;-77
2023/07/16 00:49:25;;;;;;;0.10;0.10;;;;;;;16.86;100.00;96177.53;4946422;28;20074;-78
2023/07/16 00:52:18;;;;;;;0.00;0.00;;;;;;;16.77;100.00;96173.91;4965029;28;20047;-78
2023/07/16 00:55:06;;;;;;;0.10;0.10;;;;;;;16.84;100.00;96162.72;4963553;28;20045;-79
2023/07/16 00:57:53;;;;;;;0.00;0.00;;;;;;;16.69;100.00;96156.47;4966442;28;20049;-78
2023/07/16 01:00:42;;;;;;;0.10;0.10;;;;;;;16.64;100.00;96153.00;4955328;28;20069;-78
2023/07/16 01:03:28;;;;;;;0.10;0.10;;;;;;;16.76;100.00;96166.09;4963755;28;20042;-78
2023/07/16 01:06:33;;;;;;;0.10;0.10;;;;;;;16.76;100.00;96155.28;4967612;28;20045;-79
2023/07/16 01:09:20;;;;;;;0.10;0.10;;;;;;;16.63;100.00;96162.19;4968902;28;20253;-79
2023/07/16 01:12:08;;;;;;;0.10;0.10;;;;;;;16.55;100.00;96170.97;4956104;28;20301;-78
2023/07/16 01:14:57;;;;;;;0.10;0.10;;;;;;;16.61;100.00;96172.50;4944532;28;20074;-79
2023/07/16 01:17:45;;;;;;;0.10;0.10;;;;;;;16.54;100.00;96162.06;4942355;28;20329;-78
2023/07/16 01:20:31;;;;;;;0.20;0.20;;;;;;;16.50;100.00;96162.94;4969183;28;20485;-78
2023/07/16 01:23:23;;;;;;;0.10;0.10;;;;;;;16.45;100.00;96161.13;4971874;28;20547;-78
2023/07/16 01:26:18;;;;;;;0.10;0.10;;;;;;;16.33;100.00;96174.25;4958964;28;20120;-78
2023/07/16 01:29:10;;;;;;;0.10;0.10;;;;;;;16.27;100.00;96168.16;4968321;28;20176;-79
2023/07/16 01:32:03;;;;;;;0.10;0.10;;;;;;;16.31;100.00;96173.75;4954599;28;20521;-78
2023/07/16 01:34:51;;;;;;;0.10;0.10;;;;;;;16.33;100.00;96175.06;4969830;28;20345;-79
2023/07/16 01:37:37;;;;;;;0.10;0.10;;;;;;;16.17;100.00;96177.16;4968782;28;20038;-78
2023/07/16 01:40:23;;;;;;;0.00;0.00;;;;;;;15.99;100.00;96194.16;4958917;28;20038;-78
2023/07/16 01:43:10;;;;;;;0.03;0.03;;;;;;;15.95;100.00;96185.00;4970932;28;20057;-78
2023/07/16 01:45:56;;;;;;;0.10;0.10;;;;;;;15.95;100.00;96189.59;4958648;28;20038;-78
2023/07/16 01:48:41;;;;;;;0.03;0.03;;;;;;;15.83;100.00;96201.63;4971042;28;20039;-78
2023/07/16 01:51:27;;;;;;;0.08;0.08;;;;;;;15.85;100.00;96201.31;4971920;28;20493;-78
2023/07/16 01:54:13;;;;;;;0.10;0.10;;;;;;;15.74;100.00;96199.84;4953970;28;20077;-78
2023/07/16 01:56:59;;;;;;;0.10;0.10;;;;;;;15.74;100.00;96219.53;4969185;28;20564;-79
2023/07/16 01:59:46;;;;;;;0.10;0.10;;;;;;;15.54;100.00;96203.53;4953523;28;20048;-78
2023/07/16 02:02:33;;;;;;;0.10;0.10;;;;;;;15.46;100.00;96210.34;4956271;28;20371;-79
2023/07/16 02:05:19;;;;;;;0.10;0.10;;;;;;;15.45;100.00;96210.63;4971716;28;20552;-78
2023/07/16 02:08:04;;;;;;;0.10;0.10;;;;;;;15.46;100.00;96214.94;4956282;28;20100;-78
2023/07/16 02:10:52;;;;;;;0.10;0.10;;;;;;;15.46;100.00;96212.25;4956767;28;20046;-78
2023/07/16 02:13:38;;;;;;;0.10;0.10;;;;;;;15.42;100.00;96220.13;4954044;28;20129;-78
2023/07/16 02:16:24;;;;;;;0.10;0.10;;;;;;;15.44;100.00;96219.81;4937822;28;20049;-77
2023/07/16 02:19:10;;;;;;;0.10;0.10;;;;;;;15.30;100.00;96227.75;4951918;28;20053;-77
2023/07/16 02:21:56;;;;;;;0.10;0.10;;;;;;;15.21;100.00;96241.06;4957973;28;20052;-77
2023/07/16 02:24:41;;;;;;;0.00;0.00;;;;;;;15.22;100.00;96242.66;4970413;28;20390;-77
2023/07/16 02:27:28;;;;;;;0.03;0.03;;;;;;;15.15;100.00;96241.38;4965013;28;20264;-78
2023/07/16 02:30:15;;;;;;;0.10;0.10;;;;;;;15.08;100.00;96252.47;4959400;28;20042;-77
2023/07/16 02:33:02;;;;;;;0.10;0.10;;;;;;;15.03;100.00;96244.44;4971197;28;20107;-78
2023/07/16 02:35:51;;;;;;;0.10;0.10;;;;;;;15.03;100.00;96253.34;4970973;28;20073;-77
2023/07/16 02:38:37;;;;;;;0.10;0.10;;;;;;;15.01;100.00;96255.47;4954088;28;20861;-78
2023/07/16 02:41:23;;;;;;;0.10;0.10;;;;;;;15.01;100.00;96260.88;4970404;28;20500;-78
2023/07/16 02:44:08;;;;;;;0.10;0.10;;;;;;;15.00;100.00;96266.53;4968428;28;20046;-78
2023/07/16 02:46:54;;;;;;;0.10;0.10;;;;;;;14.92;100.00;96270.63;4945101;28;20042;-78
2023/07/16 02:49:41;;;;;;;0.00;0.00;;;;;;;14.95;100.00;96270.09;4967658;28;20153;-78
2023/07/16 02:52:26;;;;;;;0.00;0.00;;;;;;;14.91;100.00;96274.41;4970420;28;20062;-78
2023/07/16 02:55:12;;;;;;;0.10;0.10;;;;;;;14.86;100.00;96279.84;4970522;28;20038;-77
2023/07/16 02:57:58;;;;;;;0.10;0.10;;;;;;;14.79;100.00;96284.75;4967431;28;20043;-79
2023/07/16 03:00:44;;;;;;;0.10;0.10;;;;;;;14.81;100.00;96287.16;4972020;28;20417;-78
2023/07/16 03:03:30;;;;;;;0.10;0.10;;;;;;;14.80;100.00;96277.47;4952874;28;20190;-79
2023/07/16 03:06:16;;;;;;;0.00;0.00;;;;;;;14.77;100.00;96285.00;4968684;28;20073;-79
2023/07/16 03:09:02;;;;;;;0.10;0.10;;;;;;;14.76;100.00;96291.47;4956434;28;20050;-79
2023/07/16 03:11:50;;;;;;;0.08;0.08;;;;;;;14.74;100.00;96295.56;4968352;28;20074;-78
2023/07/16 03:14:38;;;;;;;0.10;0.10;;;;;;;14.72;100.00;96292.34;4954411;28;20048;-77
2023/07/16 03:17:23;;;;;;;0.10;0.10;;;;;;;14.66;100.00;96296.13;4969416;28;20065;-78
2023/07/16 03:20:10;;;;;;;0.00;0.00;;;;;;;14.60;100.00;96292.66;4947028;28;20957;-78
2023/07/16 03:22:56;;;;;;;0.10;0.10;;;;;;;14.57;100.00;96306.69;4957001;28;20049;-77
2023/07/16 03:25:42;;;;;;;0.10;0.10;;;;;;;14.55;100.00;96303.44;4954593;28;20046;-77
2023/07/16 03:28:28;;;;;;;0.10;0.10;;;;;;;14.59;100.00;96309.09;4952230;28;20049;-77
2023/07/16 03:31:13;;;;;;;0.10;0.10;;;;;;;14.59;100.00;96314.47;4969800;28;20051;-78
2023/07/16 03:34:01;;;;;;;0.10;0.10;;;;;;;14.57;100.00;96320.16;4952255;28;20764;-78
2023/07/16 03:36:50;;;;;;;0.10;0.10;;;;;;;14.49;100.00;96326.91;4951840;28;20034;-78
2023/07/16 03:39:36;;;;;;;0.10;0.10;;;;;;;14.52;100.00;96333.63;4957387;28;20041;-77
2023/07/16 03:42:22;;;;;;;0.10;0.10;;;;;;;14.56;100.00;96323.13;4961061;28;20581;-77
2023/07/16 03:45:10;;;;;;;0.10;0.10;;;;;;;14.52;100.00;96322.84;4960227;28;20043;-77
2023/07/16 03:47:56;;;;;;;0.00;0.00;;;;;;;14.49;100.00;96326.13;4953631;28;20350;-78
2023/07/16 03:50:42;;;;;;;0.10;0.10;;;;;;;14.40;100.00;96319.66;4955069;28;20039;-77
2023/07/16 03:53:28;;;;;;;0.10;0.10;;;;;;;14.37;100.00;96315.63;4960176;28;20035;-77
2023/07/16 03:56:14;;;;;;;0.10;0.10;;;;;;;14.39;100.00;96318.03;4966629;28;20039;-78
2023/07/16 03:59:00;;;;;;;0.10;0.10;;;;;;;14.35;100.00;96317.00;4949278;28;20054;-78
2023/07/16 04:01:46;;;;;;;0.10;0.10;;;;;;;14.34;100.00;96331.53;4957889;28;20417;-78
2023/07/16 04:04:32;;;;;;;0.10;0.10;;;;;;;14.29;100.00;96326.16;4947844;28;20133;-78
2023/07/16 04:07:18;;;;;;;0.10;0.10;;;;;;;14.31;100.00;96334.75;4970246;28;20038;-77
2023/07/16 04:10:04;;;;;;;0.10;0.10;;;;;;;14.35;100.00;96331.25;4969566;28;20239;-77
2023/07/16 04:12:50;;;;;;;0.10;0.10;;;;;;;14.31;100.00;96337.44;4968540;28;20041;-77
2023/07/16 04:15:36;;;;;;;0.10;0.10;;;;;;;14.32;100.00;96334.50;4954081;28;20053;-77
2023/07/16 04:18:22;;;;;;;0.10;0.10;;;;;;;14.37;100.00;96349.81;4969396;28;20271;-76
2023/07/16 04:21:07;;;;;;;0.10;0.10;;;;;;;14.33;100.00;96341.50;4968262;28;20117;-77
2023/07/16 04:23:53;;;;;;;0.10;0.10;;;;;;;14.37;100.00;96349.81;4971314;28;20042;-77
2023/07/16 04:26:39;;;;;;;0.10;0.10;;;;;;;14.39;100.00;96361.09;4971248;28;20042;-78
2023/07/16 04:29:25;;;;;;;0.00;0.00;;;;;;;14.37;100.00;96360.56;4961634;28;20588;-77
2023/07/16 04:32:11;;;;;;;0.10;0.10;;;;;;;14.31;100.00;96367.06;4954467;28;20038;-77
2023/07/16 04:34:57;;;;;;;0.10;0.10;;;;;;;14.32;100.00;96368.66;4967227;28;20097;-77
2023/07/16 04:37:42;;;;;;;0.10;0.10;;;;;;;14.37;100.00;96365.97;4961931;28;20043;-77
2023/07/16 04:40:30;;;;;;;0.10;0.10;;;;;;;14.39;100.00;96363.78;4957046;28;20041;-78
2023/07/16 04:43:15;;;;;;;0.10;0.10;;;;;;;14.39;100.00;96361.91;4966542;28;20525;-77
2023/07/16 04:46:01;;;;;;;0.10;0.10;;;;;;;14.37;100.00;96365.97;4968083;28;20101;-78
2023/07/16 04:48:47;;;;;;;0.10;0.10;;;;;;;14.40;100.00;96373.50;4954572;28;20611;-77
2023/07/16 04:51:33;;;;;;;0.10;0.10;;;;;;;14.51;100.00;96372.41;4965962;28;20493;-78
2023/07/16 04:54:19;;;;;;;0.10;0.10;;;;;;;14.55;100.00;96380.72;4967683;28;20508;-78
2023/07/16 04:57:08;;;;;;;0.10;0.10;;;;;;;14.60;100.00;96386.91;4967345;28;20082;-78
2023/07/16 04:59:54;;;;;;;0.10;0.10;;;;;;;14.77;100.00;96391.94;4966199;28;20089;-78
2023/07/16 05:02:39;;;;;;;0.10;0.10;;;;;;;14.83;100.00;96379.25;4968491;28;20042;-78
2023/07/16 05:05:27;;;;;;;0.10;0.10;;;;;;;15.11;100.00;96385.88;4952386;28;20105;-78
2023/07/16 05:08:13;;;;;;;0.20;0.20;;;;;;;15.45;100.00;96388.59;4959819;28;20073;-77
2023/07/16 05:10:59;;;;;;;0.10;0.10;;;;;;;15.51;100.00;96390.16;4966863;28;20231;-78
2023/07/16 05:13:44;;;;;;;0.10;0.10;;;;;;;15.53;100.00;96388.78;4966807;28;20129;-78
2023/07/16 05:16:30;;;;;;;0.10;0.10;;;;;;;15.44;100.00;96395.88;4967732;28;20232;-78
2023/07/16 05:19:16;;;;;;;0.10;0.10;;;;;;;15.33;100.00;96427.50;4968246;28;20505;-77
2023/07/16 05:22:02;;;;;;;0.10;0.10;;;;;;;15.20;100.00;96406.53;4963747;28;20589;-77
2023/07/16 05:24:48;;;;;;;0.10;0.10;;;;;;;15.20;100.00;96406.53;4968418;28;20044;-78
2023/07/16 05:27:35;;;;;;;0.10;0.10;;;;;;;15.14;100.00;96394.19;4966618;28;20584;-77
2023/07/16 05:30:21;;;;;;;0.20;0.20;;;;;;;15.07;100.00;96414.44;4969198;28;20343;-79
2023/07/16 05:33:07;;;;;;;0.10;0.10;;;;;;;15.09;100.00;96407.66;4966609;28;20061;-79
2023/07/16 05:35:52;;;;;;;0.10;0.10;;;;;;;15.07;100.00;96399.06;4968241;28;20493;-78
2023/07/16 05:38:39;;;;;;;0.10;0.10;;;;;;;15.09;100.00;96414.94;4967661;28;20058;-79
2023/07/16 05:41:25;;;;;;;0.05;0.05;;;;;;;15.09;100.00;96421.16;4970380;28;20121;-79
2023/07/16 05:44:10;;;;;;;0.10;0.10;;;;;;;15.04;100.00;96418.50;4969626;28;20185;-78
2023/07/16 05:46:56;;;;;;;0.10;0.10;;;;;;;15.23;100.00;96422.16;4956889;28;20049;-79
2023/07/16 05:49:42;;;;;;;0.10;0.10;;;;;;;15.31;100.00;96420.75;4967044;28;20129;-80
2023/07/16 05:52:28;;;;;;;0.10;0.10;;;;;;;15.36;100.00;96426.13;4965908;28;20038;-79
2023/07/16 05:55:14;;;;;;;0.10;0.10;;;;;;;15.31;100.00;96448.53;4961284;28;20035;-79
2023/07/16 05:58:00;;;;;;;0.15;0.10;;;;;;;15.46;100.00;96436.03;4969978;28;20129;-79
2023/07/16 06:00:46;;;;;;;0.10;0.10;;;;;;;15.23;100.00;96445.59;4969595;28;20225;-80
2023/07/16 06:03:32;;;;;;;0.10;0.10;;;;;;;15.39;100.00;96457.09;4972498;28;20042;-80
2023/07/16 06:06:18;;;;;;;0.10;0.10;;;;;;;15.54;100.00;96446.22;4944224;28;20125;-77
2023/07/16 06:09:04;;;;;;;0.10;0.10;;;;;;;15.49;100.00;96446.28;4970238;28;20050;-77
2023/07/16 06:11:50;;;;;;;0.10;0.10;;;;;;;15.43;100.00;96450.09;4970867;28;20531;-77
2023/07/16 06:14:36;;;;;;;0.15;0.15;;;;;;;15.74;100.00;96450.72;4969474;28;20053;-79
2023/07/16 06:17:22;;;;;;;0.10;0.10;;;;;;;15.92;100.00;96441.94;4954751;28;20445;-79
2023/07/16 06:20:08;;;;;;;0.10;0.10;;;;;;;15.99;100.00;96449.69;4968887;28;20074;-79
2023/07/16 06:22:54;;;;;;;0.10;0.10;;;;;;;15.97;100.00;96444.59;4956050;28;20103;-78
2023/07/16 06:25:48;;;;;;;0.15;0.15;;;;;;;16.16;100.00;96467.09;4969168;28;20039;-78
2023/07/16 06:28:33;;;;;;;0.13;0.10;;;;;;;16.10;100.00;96456.63;4953563;28;20501;-79
2023/07/16 06:31:19;;;;;;;0.00;0.00;;;;;;;15.83;100.00;96466.00;4963832;28;20054;-79
2023/07/16 06:34:05;;;;;;;0.10;0.10;;;;;;;15.76;100.00;96476.31;4967220;28;20229;-79
2023/07/16 06:36:51;;;;;;;0.15;0.15;;;;;;;15.62;100.00;96469.13;4970147;28;20043;-79
2023/07/16 06:39:37;;;;;;;0.10;0.10;;;;;;;15.80;100.00;96463.88;4970139;28;20561;-79
2023/07/16 06:42:23;;;;;;;0.10;0.10;;;;;;;15.84;100.00;96475.72;4968945;28;20334;-78
2023/07/16 06:45:09;;;;;;;0.10;0.10;;;;;;;15.86;100.00;96465.44;4961221;28;20408;-78
2023/07/16 06:47:55;;;;;;;0.10;0.10;;;;;;;15.93;100.00;96478.63;4963834;28;20047;-78
2023/07/16 06:50:41;;;;;;;0.20;0.20;;;;;;;15.87;100.00;96463.53;4967657;28;20050;-78
2023/07/16 06:53:26;;;;;;;0.20;0.20;;;;;;;15.99;100.00;96465.91;4969909;28;20037;-79
2023/07/16 06:56:12;;;;;;;0.10;0.10;;;;;;;15.98;100.00;96458.88;4970757;28;20089;-78
2023/07/16 06:58:58;;;;;;;0.10;0.10;;;;;;;16.03;100.00;96461.53;4967924;28;20563;-79
2023/07/16 07:01:44;;;;;;;0.10;0.10;;;;;;;15.98;100.00;96465.09;4968461;28;20452;-78
2023/07/16 07:04:30;;;;;;;0.00;0.00;;;;;;;16.01;100.00;96445.63;4970706;28;20074;-79
2023/07/16 07:07:16;;;;;;;0.10;0.10;;;;;;;16.12;100.00;96457.16;4969537;28;20038;-78
2023/07/16 07:10:04;;;;;;;0.15;0.15;;;;;;;16.10;100.00;96457.41;4967517;28;20522;-78
2023/07/16 07:12:50;;;;;;;0.10;0.10;;;;;;;16.17;100.00;96465.19;4967375;28;20350;-79
2023/07/16 07:15:36;;;;;;;0.10;0.10;;;;;;;16.16;100.00;96455.47;4968901;28;20108;-79
2023/07/16 07:18:22;;;;;;;0.10;0.10;;;;;;;16.26;100.00;96449.97;4967989;28;20039;-79
2023/07/16 07:21:08;;;;;;;0.10;0.10;;;;;;;16.15;100.00;96459.28;4968434;28;20055;-78
2023/07/16 07:23:53;;;;;;;0.10;0.10;;;;;;;16.32;100.00;96454.25;4970489;28;20078;-79
2023/07/16 07:26:39;;;;;;;0.10;0.10;;;;;;;16.24;100.00;96456.75;4967906;28;20592;-78
2023/07/16 07:29:25;;;;;;;0.10;0.10;;;;;;;16.36;100.00;96465.31;4969814;28;20057;-78
2023/07/16 07:32:11;;;;;;;0.20;0.20;;;;;;;16.40;100.00;96472.53;4970620;28;20052;-78
2023/07/16 07:34:57;;;;;;;0.10;0.10;;;;;;;16.61;100.00;96461.53;4972563;28;20075;-79
2023/07/16 07:37:42;;;;;;;0.10;0.10;;;;;;;16.75;100.00;96465.19;4957864;28;20398;-78
2023/07/16 07:40:28;;;;;;;0.10;0.10;;;;;;;16.66;100.00;96473.09;4970101;28;20038;-79
2023/07/16 07:43:14;;;;;;;0.10;0.10;;;;;;;16.73;100.00;96461.16;4968580;28;20050;-79
2023/07/16 07:46:00;;;;;;;0.10;0.10;;;;;;;16.58;100.00;96467.53;4969922;28;20046;-79
2023/07/16 07:48:46;;;;;;;0.10;0.10;;;;;;;16.76;100.00;96458.69;4970225;28;20493;-79
2023/07/16 07:51:32;;;;;;;0.20;0.20;;;;;;;16.92;100.00;96470.13;4970346;28;20371;-78
2023/07/16 07:54:17;;;;;;;0.15;0.15;;;;;;;17.03;100.00;96457.28;4968169;28;20053;-79
2023/07/16 07:57:04;;;;;;;0.10;0.10;;;;;;;17.06;100.00;96475.66;4969392;28;20603;-78
2023/07/16 07:59:56;;;;;;;0.10;0.10;;;;;;;16.91;100.00;96468.53;4969137;28;20072;-79
2023/07/16 08:02:42;;;;;;;0.13;0.13;;;;;;;16.92;100.00;96475.53;4972078;28;20074;-79
2023/07/16 08:05:28;;;;;;;0.10;0.10;;;;;;;16.99;100.00;96474.09;4955582;28;20062;-78
2023/07/16 08:08:14;;;;;;;0.10;0.10;;;;;;;16.95;100.00;96474.94;4969319;28;20276;-79
2023/07/16 08:11:01;;;;;;;0.10;0.10;;;;;;;17.31;100.00;96482.63;4969129;28;20041;-79
2023/07/16 08:13:49;;;;;;;0.10;0.10;;;;;;;17.39;100.00;96485.50;4969365;28;20081;-78
2023/07/16 08:16:35;;;;;;;0.10;0.10;;;;;;;17.78;100.00;96473.59;4971189;28;20042;-79
2023/07/16 08:19:20;;;;;;;0.10;0.10;;;;;;;17.58;100.00;96471.16;4954047;28;20077;-79
2023/07/16 08:22:06;;;;;;;0.20;0.20;;;;;;;17.64;100.00;96472.69;4968331;28;20725;-77
2023/07/16 08:24:52;;;;;;;0.10;0.10;;;;;;;17.43;100.00;96483.00;4969892;28;20046;-79
2023/07/16 08:27:38;;;;;;;0.10;0.10;;;;;;;17.72;100.00;96475.56;4953954;28;20042;-79
2023/07/16 08:30:24;;;;;;;0.20;0.20;;;;;;;18.06;100.00;96472.63;4967513;28;20047;-78
2023/07/16 08:33:11;;;;;;;0.10;0.10;;;;;;;17.95;100.00;96479.28;4968545;28;20515;-79
2023/07/16 08:35:57;;;;;;;0.10;0.10;;;;;;;17.62;100.00;96474.91;4966366;28;20038;-79
2023/07/16 08:38:43;;;;;;;0.10;0.10;;;;;;;17.86;100.00;96472.94;4967851;28;20065;-78
2023/07/16 08:41:30;;;;;;;0.10;0.10;;;;;;;17.91;100.00;96493.72;4968904;28;20054;-79
2023/07/16 08:44:16;;;;;;;0.10;0.10;;;;;;;17.75;100.00;96487.72;4967676;28;20537;-79
2023/07/16 08:47:03;;;;;;;0.20;0.20;;;;;;;17.94;100.00;96491.22;4965383;28;20627;-79
2023/07/16 08:49:55;;;;;;;0.10;0.10;;;;;;;18.27;99.20;96491.22;4968123;28;20046;-77
2023/07/16 08:52:43;;;;;;;0.10;0.10;;;;;;;18.23;98.72;96495.66;4969710;28;20046;-77
2023/07/16 08:55:29;;;;;;;0.10;0.10;;;;;;;18.15;100.00;96493.63;4947835;28;20089;-78
2023/07/16 08:58:15;;;;;;;0.10;0.10;;;;;;;17.99;100.00;96493.06;4967252;28;20155;-78
2023/07/16 09:01:02;;;;;;;0.17;0.17;;;;;;;18.09;99.96;96514.53;4968272;28;20088;-77
2023/07/16 09:03:47;;;;;;;0.20;0.13;;;;;;;17.91;99.81;96504.56;4967461;28;20061;-77
2023/07/16 09:06:33;;;;;;;0.10;0.10;;;;;;;17.95;100.00;96510.97;4967888;28;20168;-78
2023/07/16 09:09:22;;;;;;;0.10;0.10;;;;;;;18.27;100.00;96504.78;4967578;28;20074;-78
2023/07/16 09:12:14;;;;;;;0.13;0.13;;;;;;;18.33;96.75;96493.56;4953455;28;20081;-77
2023/07/16 09:15:00;;;;;;;0.20;0.20;;;;;;;18.42;97.44;96507.22;4968925;28;20043;-77
2023/07/16 09:17:49;;;;;;;0.10;0.10;;;;;;;18.65;93.17;96530.69;4966322;28;20046;-78
2023/07/16 09:20:35;;;;;;;0.10;0.10;;;;;;;18.43;95.27;96521.56;4966378;28;20035;-79
2023/07/16 09:23:24;;;;;;;0.20;0.20;;;;;;;18.45;93.20;96524.81;4963367;28;20046;-78
2023/07/16 09:26:10;;;;;;;0.10;0.10;;;;;;;18.75;92.27;96526.19;4969350;28;20480;-78
2023/07/16 09:28:55;;;;;;;0.10;0.10;;;;;;;18.94;92.77;96521.50;4967093;28;20043;-78
2023/07/16 09:31:55;;;;;;;0.10;0.10;;;;;;;19.17;88.77;96514.28;4968566;28;20073;-79
2023/07/16 09:34:41;;;;;;;0.10;0.10;;;;;;;19.17;91.13;96517.78;4973001;28;20058;-79
2023/07/16 09:37:28;;;;;;;0.10;0.10;;;;;;;19.49;88.16;96516.84;4942760;28;20216;-79
2023/07/16 09:40:14;;;;;;;0.10;0.10;;;;;;;19.19;89.10;96521.00;4960777;28;20121;-79
2023/07/16 09:43:01;;;;;;;0.10;0.10;;;;;;;19.15;89.23;96522.72;4971751;28;20059;-79
2023/07/16 09:45:47;;;;;;;0.10;0.10;;;;;;;19.24;90.12;96536.38;4974485;28;20050;-79
2023/07/16 09:48:33;;;;;;;0.10;0.10;;;;;;;19.36;86.54;96525.00;4971809;28;20508;-79
2023/07/16 09:51:20;;;;;;;0.10;0.10;;;;;;;19.72;85.68;96535.94;4969242;28;20053;-80
2023/07/16 09:54:06;;;;;;;0.10;0.10;;;;;;;19.32;85.84;96532.16;4970146;28;20775;-79
2023/07/16 09:56:58;;;;;;;0.17;0.17;;;;;;;19.45;85.88;96526.72;4969050;28;20075;-80
2023/07/16 09:59:46;;;;;;;0.10;0.10;;;;;;;19.82;82.98;96514.00;4972447;28;20046;-80
2023/07/16 10:02:37;;;;;;;0.10;0.10;;;;;;;19.87;82.61;96513.09;4967860;28;20125;-79
2023/07/16 10:05:27;;;;;;;0.10;0.10;;;;;;;20.11;82.58;96513.59;4969790;28;20054;-79
2023/07/16 10:08:18;;;;;;;0.10;0.10;;;;;;;19.94;81.31;96533.28;4970471;28;20117;-79
2023/07/16 10:11:16;;;;;;;0.20;0.20;;;;;;;20.20;81.73;96519.91;4956927;28;20668;-78
2023/07/16 10:14:02;;;;;;;0.10;0.10;;;;;;;20.84;76.08;96536.78;4956698;28;20046;-79
2023/07/16 10:16:48;;;;;;;0.10;0.10;;;;;;;21.00;72.71;96528.22;4969646;28;20046;-79
2023/07/16 10:19:55;;;;;;;0.20;0.20;;;;;;;20.90;77.43;96523.88;4971582;28;20052;-79
2023/07/16 10:22:43;;;;;;;0.10;0.10;;;;;;;21.53;72.44;96514.50;4967752;28;20070;-79
2023/07/16 10:25:29;;;;;;;0.10;0.10;;;;;;;21.79;74.47;96521.91;4963987;28;20074;-79
2023/07/16 10:28:15;;;;;;;0.20;0.20;;;;;;;21.38;74.11;96529.38;4970775;28;20042;-78
2023/07/16 10:31:01;;;;;;;0.10;0.10;;;;;;;21.66;67.89;96518.22;4952747;28;20110;-79
2023/07/16 10:34:07;;;;;;;0.10;0.10;;;;;;;21.66;68.89;96524.47;4970587;28;20054;-79
2023/07/16 10:36:53;;;;;;;0.10;0.10;;;;;;;21.42;72.35;96521.38;4956688;28;20707;-79
2023/07/16 10:39:55;;;;;;;0.10;0.10;;;;;;;21.41;68.49;96517.88;4970091;28;20046;-79
2023/07/16 10:42:43;;;;;;;0.10;0.10;;;;;;;21.56;68.31;96522.06;4967831;28;20078;-78
2023/07/16 10:45:29;;;;;;;0.20;0.20;;;;;;;21.66;63.26;96519.03;4966552;28;20041;-77
2023/07/16 10:48:15;;;;;;;0.10;0.10;;;;;;;20.80;74.52;96522.22;4971100;28;20137;-77
2023/07/16 10:51:01;;;;;;;0.20;0.20;;;;;;;21.41;65.40;96531.47;4968197;28;20050;-78
2023/07/16 10:53:47;;;;;;;0.10;0.10;;;;;;;22.37;63.87;96518.75;4968190;28;20130;-78
2023/07/16 10:56:37;;;;;;;0.10;0.10;;;;;;;22.18;57.73;96523.75;4970605;28;20074;-78
2023/07/16 10:59:23;;;;;;;0.10;0.10;;;;;;;22.93;60.36;96530.53;4970128;28;20051;-79
2023/07/16 11:02:11;;;;;;;0.15;0.10;;;;;;;23.32;50.87;96528.59;4960990;28;20042;-78
2023/07/16 11:04:57;;;;;;;0.10;0.10;;;;;;;22.76;55.67;96528.63;4970664;28;20136;-77
2023/07/16 11:07:47;;;;;;;0.10;0.10;;;;;;;22.57;57.12;96514.56;4970273;28;20038;-78
2023/07/16 11:10:32;;;;;;;0.20;0.20;;;;;;;24.07;56.54;96518.69;4957491;28;20047;-78
2023/07/16 11:13:18;;;;;;;0.10;0.10;;;;;;;23.94;49.51;96525.19;4969974;28;20138;-78
2023/07/16 11:16:10;;;;;;;0.20;0.20;;;;;;;23.56;50.57;96520.59;4968176;28;20092;-78
2023/07/16 11:18:56;;;;;;;0.20;0.20;;;;;;;23.10;56.16;96521.47;4965285;28;20033;-78
2023/07/16 11:21:42;;;;;;;0.10;0.10;;;;;;;23.91;50.76;96517.69;4968813;28;21064;-79
2023/07/16 11:24:28;;;;;;;0.10;0.10;;;;;;;24.77;47.59;96518.88;4969595;28;20043;-77
2023/07/16 11:27:20;;;;;;;0.13;0.13;;;;;;;25.19;46.02;96497.63;4956374;28;20119;-79
2023/07/16 11:30:06;;;;;;;0.10;0.10;;;;;;;25.40;41.60;96492.03;4968616;28;20054;-78
2023/07/16 11:32:53;;;;;;;0.05;0.05;;;;;;;24.24;43.37;96516.94;4965359;28;20043;-79
2023/07/16 11:35:40;;;;;;;0.10;0.10;;;;;;;24.57;44.24;96522.44;4970232;28;20492;-78
2023/07/16 11:38:26;;;;;;;0.10;0.10;;;;;;;27.65;34.10;96520.22;4969260;28;20088;-79
2023/07/16 11:41:20;;;;;;;0.20;0.20;;;;;;;29.95;29.09;96505.69;4967430;28;20698;-78
2023/07/16 11:44:07;;;;;;;0.10;0.10;;;;;;;28.98;31.37;96517.13;4966119;28;20160;-78
2023/07/16 11:46:53;;;;;;;0.10;0.10;;;;;;;26.99;34.26;96523.66;4966716;28;20042;-79
2023/07/16 11:49:39;;;;;;;0.10;0.10;;;;;;;25.99;38.12;96535.38;4944106;28;20038;-77
2023/07/16 11:52:27;;;;;;;0.17;0.17;;;;;;;29.16;30.27;96531.22;4967611;28;20049;-77
2023/07/16 11:55:13;;;;;;;0.20;0.20;;;;;;;32.23;24.68;96529.28;4967122;28;20061;-78
2023/07/16 11:57:59;;;;;;;0.10;0.10;;;;;;;34.43;22.65;96517.63;4970680;28;20055;-78
2023/07/16 12:00:45;;;;;;;0.10;0.10;;;;;;;30.98;25.37;96525.53;4961938;28;20046;-78
2023/07/16 12:03:31;;;;;;;0.10;0.10;;;;;;;27.83;30.45;96529.69;4970468;28;20069;-78
2023/07/16 12:06:16;;;;;;;0.10;0.10;;;;;;;32.87;23.67;96519.28;4968330;28;20683;-78
2023/07/16 12:09:03;;;;;;;0.13;0.13;;;;;;;35.22;19.57;96511.66;4966663;28;20573;-78
2023/07/16 12:11:49;;;;;;;0.08;0.08;;;;;;;33.21;22.89;96513.38;4953919;28;20683;-77
2023/07/16 12:14:35;;;;;;;0.20;0.20;;;;;;;29.40;26.53;96519.81;4970214;28;20108;-78
2023/07/16 12:17:21;;;;;;;0.00;0.00;;;;;;;29.11;27.66;96520.50;4967692;28;20041;-79
2023/07/16 12:20:07;;;;;;;0.20;0.20;;;;;;;31.45;25.09;96526.75;4966563;28;20047;-78
2023/07/16 12:22:53;;;;;;;0.10;0.10;;;;;;;28.97;28.16;96529.31;4967108;28;20045;-78
2023/07/16 12:25:39;;;;;;;0.10;0.10;;;;;;;28.11;29.38;96525.97;4967404;28;20651;-78
2023/07/16 12:28:25;;;;;;;0.10;0.10;;;;;;;31.25;24.98;96520.66;4968710;28;20545;-78
2023/07/16 12:31:10;;;;;;;0.10;0.10;;;;;;;30.44;26.61;96510.31;4947094;28;20193;-79
2023/07/16 12:33:57;;;;;;;0.08;0.08;;;;;;;28.71;28.65;96526.41;4966603;28;20046;-78
2023/07/16 12:36:43;;;;;;;0.17;0.17;;;;;;;30.15;27.57;96509.94;4969422;28;20045;-78
2023/07/16 12:39:29;;;;;;;0.10;0.10;;;;;;;33.38;23.05;96504.28;4970413;28;20555;-77
2023/07/16 12:42:15;;;;;;;0.00;0.00;;;;;;;29.96;25.68;96518.31;4966560;28;20509;-78
2023/07/16 12:45:02;;;;;;;0.00;0.00;;;;;;;27.71;29.49;96532.56;4967504;28;20050;-78
2023/07/16 12:47:48;;;;;;;0.10;0.10;;;;;;;27.50;32.03;96543.81;4968466;28;20125;-78
2023/07/16 12:50:34;;;;;;;0.10;0.10;;;;;;;33.36;23.94;96528.84;4966443;28;20077;-79
2023/07/16 12:53:22;;;;;;;0.10;0.10;;;;;;;36.90;19.70;96531.06;4954777;28;20043;-78
2023/07/16 12:56:08;;;;;;;0.10;0.10;;;;;;;37.19;18.23;96536.22;4936244;28;20043;-79
2023/07/16 12:58:53;;;;;;;0.10;0.10;;;;;;;33.49;21.65;96545.91;4967079;28;20160;-80